Time;durP1;ratioP1;P1;durP2;ratioP2;P2;SDS_P1;SDS_P2;PMS_P1;PMS_P2;Temp;Humidity;BMP_temperature;BMP_pressure;BME280_temperature;BME280_humidity;BME280_pressure;Samples;Min_cycle;Max_cycle;Signal;HPM_P1;HPM_P2
2021/10/08 00:01:36;;;;;;;722.35;95.35;;;;;;;;;;4116450;28;20102;-72
2021/10/08 00:03:37;;;;;;;389.60;53.75;;;;;;;;;;4116305;28;20038;-71
2021/10/08 00:05:38;;;;;;;289.98;53.58;;;;;;;;;;4116520;28;20039;-72
2021/10/08 00:07:39;;;;;;;250.50;50.00;;;;;;;;;;4115093;28;20482;-73
2021/10/08 00:09:40;;;;;;;625.88;83.38;;;;;;;;;;4116388;28;20054;-73
2021/10/08 00:11:41;;;;;;;597.25;81.07;;;;;;;;;;4108395;28;20113;-73
2021/10/08 00:13:43;;;;;;;636.75;84.20;;;;;;;;;;4099850;28;20043;-72
2021/10/08 00:15:44;;;;;;;436.35;65.07;;;;;;;;;;4116623;28;20058;-72
2021/10/08 00:17:45;;;;;;;609.85;80.57;;;;;;;;;;4117585;28;20574;-72
2021/10/08 00:19:46;;;;;;;584.35;77.60;;;;;;;;;;4098164;28;20035;-72
2021/10/08 00:21:47;;;;;;;529.40;72.68;;;;;;;;;;4116382;28;20057;-72
2021/10/08 00:23:49;;;;;;;579.60;77.97;;;;;;;;;;4098081;28;20039;-73
2021/10/08 00:25:50;;;;;;;598.35;79.88;;;;;;;;;;4130379;28;20361;-72
2021/10/08 00:27:51;;;;;;;596.83;78.57;;;;;;;;;;4129718;28;20027;-72
2021/10/08 00:29:52;;;;;;;550.85;73.68;;;;;;;;;;4108822;28;20181;-72
2021/10/08 00:31:53;;;;;;;419.45;61.10;;;;;;;;;;4109109;28;20486;-73
2021/10/08 00:33:54;;;;;;;525.20;67.97;;;;;;;;;;4113480;28;20074;-73
2021/10/08 00:35:55;;;;;;;467.38;64.38;;;;;;;;;;4116397;28;20066;-73
2021/10/08 00:37:57;;;;;;;523.25;69.68;;;;;;;;;;4119340;28;20072;-73
2021/10/08 00:39:58;;;;;;;467.38;61.80;;;;;;;;;;4113985;28;20051;-72
2021/10/08 00:41:59;;;;;;;563.63;71.00;;;;;;;;;;4114986;28;20037;-72
2021/10/08 00:44:00;;;;;;;375.48;54.28;;;;;;;;;;4115184;28;20121;-72
2021/10/08 00:46:02;;;;;;;504.90;68.45;;;;;;;;;;4126043;28;20069;-73
2021/10/08 00:48:06;;;;;;;482.55;64.72;;;;;;;;;;4100052;28;20031;-72
2021/10/08 00:50:09;;;;;;;581.95;75.00;;;;;;;;;;4130843;28;20047;-73
2021/10/08 00:52:10;;;;;;;;;;;;;;;;;;4115327;28;20047;-72
2021/10/08 00:54:11;;;;;;;597.08;70.75;;;;;;;;;;4129357;28;19938;-72
2021/10/08 00:56:15;;;;;;;572.00;72.97;;;;;;;;;;4113408;28;20615;-72
2021/10/08 00:58:18;;;;;;;316.65;51.55;;;;;;;;;;4089602;28;20168;-72
2021/10/08 01:00:20;;;;;;;525.95;68.10;;;;;;;;;;4113900;28;20047;-73
2021/10/08 01:02:21;;;;;;;562.20;73.03;;;;;;;;;;4109703;28;20120;-73
2021/10/08 01:04:24;;;;;;;392.13;57.53;;;;;;;;;;4123771;28;20744;-73
2021/10/08 01:06:25;;;;;;;500.38;66.53;;;;;;;;;;4113865;28;20031;-71
2021/10/08 01:08:26;;;;;;;577.60;69.80;;;;;;;;;;4125151;28;20049;-73
2021/10/08 01:10:27;;;;;;;561.90;68.63;;;;;;;;;;4094889;28;20161;-73
2021/10/08 01:12:28;;;;;;;481.20;59.95;;;;;;;;;;4116174;28;20136;-71
2021/10/08 01:14:29;;;;;;;344.00;46.30;;;;;;;;;;4107171;28;20529;-71
2021/10/08 01:16:31;;;;;;;462.15;55.40;;;;;;;;;;4111724;28;20397;-72
2021/10/08 01:18:32;;;;;;;184.93;34.60;;;;;;;;;;4126907;28;20058;-72
2021/10/08 01:20:34;;;;;;;315.45;43.47;;;;;;;;;;4120292;28;20098;-72
2021/10/08 01:22:35;;;;;;;404.73;48.63;;;;;;;;;;4106664;28;20149;-72
2021/10/08 01:24:36;;;;;;;509.20;58.22;;;;;;;;;;4128265;28;20063;-72
2021/10/08 01:26:38;;;;;;;419.17;57.38;;;;;;;;;;4113544;28;20460;-72
2021/10/08 01:28:39;;;;;;;356.30;47.60;;;;;;;;;;4098572;28;20115;-72
2021/10/08 01:30:40;;;;;;;401.63;51.75;;;;;;;;;;4115047;28;20057;-72
2021/10/08 01:32:41;;;;;;;486.63;60.72;;;;;;;;;;4114579;28;20034;-73
2021/10/08 01:34:43;;;;;;;355.30;47.85;;;;;;;;;;4111173;28;20116;-73
2021/10/08 01:36:44;;;;;;;442.48;58.60;;;;;;;;;;4113764;28;20038;-72
2021/10/08 01:38:45;;;;;;;395.63;53.83;;;;;;;;;;4113604;28;20066;-72
2021/10/08 01:40:47;;;;;;;446.83;58.28;;;;;;;;;;4128743;28;20057;-72
2021/10/08 01:42:48;;;;;;;368.75;51.58;;;;;;;;;;4109211;28;20042;-73
2021/10/08 01:44:49;;;;;;;465.95;58.35;;;;;;;;;;4121457;28;20030;-72
2021/10/08 01:46:50;;;;;;;250.32;40.10;;;;;;;;;;4108686;28;20042;-72
2021/10/08 01:48:51;;;;;;;411.88;49.47;;;;;;;;;;4124822;28;20117;-72
2021/10/08 01:50:53;;;;;;;414.13;54.60;;;;;;;;;;4114884;28;20054;-72
2021/10/08 01:52:54;;;;;;;327.08;44.00;;;;;;;;;;4113323;28;20042;-72
2021/10/08 01:54:55;;;;;;;441.33;57.85;;;;;;;;;;4114977;28;20493;-72
2021/10/08 01:56:56;;;;;;;481.88;58.05;;;;;;;;;;4114515;28;20105;-73
2021/10/08 01:58:58;;;;;;;388.02;50.83;;;;;;;;;;4111376;28;20046;-73
2021/10/08 02:00:59;;;;;;;434.02;54.40;;;;;;;;;;4109511;28;20050;-74
2021/10/08 02:03:00;;;;;;;344.15;49.22;;;;;;;;;;4118989;28;20045;-72
2021/10/08 02:05:02;;;;;;;218.30;36.97;;;;;;;;;;4121567;28;20736;-73
2021/10/08 02:07:03;;;;;;;213.70;33.03;;;;;;;;;;4110659;28;20456;-72
2021/10/08 02:09:05;;;;;;;440.88;53.05;;;;;;;;;;4112655;28;20430;-73
2021/10/08 02:11:06;;;;;;;349.20;46.47;;;;;;;;;;4113067;28;20119;-73
2021/10/08 02:13:07;;;;;;;283.50;39.50;;;;;;;;;;4110557;28;20396;-73
2021/10/08 02:15:09;;;;;;;308.63;42.00;;;;;;;;;;4113931;28;20510;-73
2021/10/08 02:17:10;;;;;;;419.40;50.60;;;;;;;;;;4116038;28;20092;-73
2021/10/08 02:19:11;;;;;;;297.30;39.10;;;;;;;;;;4125542;28;20031;-73
2021/10/08 02:21:12;;;;;;;277.63;41.70;;;;;;;;;;4112663;28;20053;-73
2021/10/08 02:23:13;;;;;;;384.10;50.63;;;;;;;;;;4114731;28;20466;-73
2021/10/08 02:25:15;;;;;;;439.45;51.38;;;;;;;;;;4112215;28;20078;-73
2021/10/08 02:27:16;;;;;;;515.58;55.90;;;;;;;;;;4115591;28;20062;-71
2021/10/08 02:29:17;;;;;;;275.65;38.10;;;;;;;;;;4113249;28;20096;-72
2021/10/08 02:31:18;;;;;;;432.80;50.55;;;;;;;;;;4114079;28;20129;-72
2021/10/08 02:33:19;;;;;;;298.10;42.63;;;;;;;;;;4115162;28;20045;-72
2021/10/08 02:35:21;;;;;;;494.35;58.40;;;;;;;;;;4112847;28;20047;-73
2021/10/08 02:37:22;;;;;;;369.83;45.40;;;;;;;;;;4113005;28;20117;-72
2021/10/08 02:39:23;;;;;;;230.68;38.67;;;;;;;;;;4113153;28;20105;-73
2021/10/08 02:41:24;;;;;;;491.13;52.05;;;;;;;;;;4098396;28;20031;-73
2021/10/08 02:43:26;;;;;;;393.50;46.53;;;;;;;;;;4114281;28;20027;-73
2021/10/08 02:45:27;;;;;;;441.23;50.88;;;;;;;;;;4112585;28;20045;-72
2021/10/08 02:47:28;;;;;;;462.58;55.33;;;;;;;;;;4112525;28;20066;-73
2021/10/08 02:49:29;;;;;;;344.92;43.28;;;;;;;;;;4114166;28;20112;-73
2021/10/08 02:51:33;;;;;;;450.23;53.80;;;;;;;;;;4115718;28;20038;-73
2021/10/08 02:53:34;;;;;;;290.20;42.05;;;;;;;;;;4112768;28;20047;-72
2021/10/08 02:55:36;;;;;;;517.58;58.63;;;;;;;;;;4114666;28;20117;-73
2021/10/08 02:57:38;;;;;;;407.50;52.25;;;;;;;;;;4112259;28;20122;-73
2021/10/08 02:59:39;;;;;;;168.02;32.17;;;;;;;;;;4113117;28;20039;-73
2021/10/08 03:01:40;;;;;;;240.60;37.85;;;;;;;;;;4112643;28;20026;-73
2021/10/08 03:03:41;;;;;;;385.23;46.60;;;;;;;;;;4111384;28;20042;-73
2021/10/08 03:05:43;;;;;;;273.50;38.17;;;;;;;;;;4112367;28;20114;-71
2021/10/08 03:07:44;;;;;;;159.55;29.45;;;;;;;;;;4110600;28;20046;-73
2021/10/08 03:09:45;;;;;;;285.38;40.08;;;;;;;;;;4104008;28;20054;-72
2021/10/08 03:11:46;;;;;;;220.30;35.03;;;;;;;;;;4113836;28;20066;-72
2021/10/08 03:13:47;;;;;;;291.35;39.90;;;;;;;;;;4112184;28;20093;-73
2021/10/08 03:15:48;;;;;;;319.90;43.95;;;;;;;;;;4124273;28;20545;-73
2021/10/08 03:17:49;;;;;;;224.18;33.22;;;;;;;;;;4113757;28;20501;-73
2021/10/08 03:19:50;;;;;;;292.77;40.03;;;;;;;;;;4110166;28;20157;-73
2021/10/08 03:21:52;;;;;;;322.65;44.70;;;;;;;;;;4126985;28;20057;-73
2021/10/08 03:23:53;;;;;;;230.90;36.47;;;;;;;;;;4113331;28;20065;-72
2021/10/08 03:25:54;;;;;;;281.33;38.63;;;;;;;;;;4113836;28;20039;-72
2021/10/08 03:27:55;;;;;;;230.00;36.28;;;;;;;;;;4112857;28;20042;-72
2021/10/08 03:29:56;;;;;;;216.60;34.90;;;;;;;;;;4113711;28;20050;-73
2021/10/08 03:31:57;;;;;;;196.02;33.10;;;;;;;;;;4113445;28;20056;-72
2021/10/08 03:33:58;;;;;;;247.00;36.60;;;;;;;;;;4113991;28;20063;-72
2021/10/08 03:35:59;;;;;;;245.38;36.15;;;;;;;;;;4116004;28;20658;-72
2021/10/08 03:38:10;;;;;;;358.10;44.22;;;;;;;;;;4114815;28;20426;-72
2021/10/08 03:40:19;;;;;;;210.20;31.92;;;;;;;;;;4127542;28;20164;-72
2021/10/08 03:42:22;;;;;;;284.83;39.22;;;;;;;;;;4115669;28;20034;-72
2021/10/08 03:44:27;;;;;;;252.95;36.22;;;;;;;;;;4115518;28;20078;-72
2021/10/08 03:46:33;;;;;;;241.23;35.13;;;;;;;;;;4118497;28;20097;-72
2021/10/08 03:50:59;;;;;;;153.80;27.88;;;;;;;;;;4116817;28;20078;-73
2021/10/08 03:53:00;;;;;;;190.25;29.15;;;;;;;;;;4115531;28;20034;-72
2021/10/08 03:55:01;;;;;;;186.43;28.75;;;;;;;;;;4131957;28;20041;-72
2021/10/08 03:57:02;;;;;;;212.25;30.42;;;;;;;;;;4106475;28;21207;-72
2021/10/08 03:59:04;;;;;;;96.75;23.02;;;;;;;;;;4107283;28;20113;-72
2021/10/08 04:01:05;;;;;;;130.40;26.05;;;;;;;;;;4114914;28;20030;-72
2021/10/08 04:03:06;;;;;;;230.75;32.08;;;;;;;;;;4114112;28;20114;-72
2021/10/08 04:05:07;;;;;;;341.90;38.60;;;;;;;;;;4114728;28;20490;-72
2021/10/08 04:07:08;;;;;;;198.82;30.85;;;;;;;;;;4115985;28;20035;-72
2021/10/08 04:09:10;;;;;;;226.85;29.15;;;;;;;;;;4114851;28;20039;-72
2021/10/08 04:11:11;;;;;;;350.10;39.58;;;;;;;;;;4132535;28;20493;-71
2021/10/08 04:13:13;;;;;;;374.52;44.28;;;;;;;;;;4123452;28;20062;-72
2021/10/08 04:15:14;;;;;;;231.05;34.45;;;;;;;;;;4130371;28;20088;-72
2021/10/08 04:17:15;;;;;;;312.20;39.10;;;;;;;;;;4115236;28;20118;-72
2021/10/08 04:19:16;;;;;;;338.48;39.00;;;;;;;;;;4137713;28;20033;-72
2021/10/08 04:21:18;;;;;;;244.18;34.15;;;;;;;;;;4125345;28;20091;-72
2021/10/08 04:23:19;;;;;;;336.88;41.75;;;;;;;;;;4114505;28;20149;-72
2021/10/08 04:25:20;;;;;;;227.23;36.92;;;;;;;;;;4114021;28;20035;-72
2021/10/08 04:27:21;;;;;;;133.85;27.25;;;;;;;;;;4127486;28;20057;-72
2021/10/08 04:29:22;;;;;;;381.77;46.70;;;;;;;;;;4114986;28;20482;-72
2021/10/08 04:31:24;;;;;;;441.40;48.13;;;;;;;;;;4112462;28;20459;-72
2021/10/08 04:33:27;;;;;;;378.75;44.42;;;;;;;;;;4113667;28;20670;-72
2021/10/08 04:35:28;;;;;;;410.85;45.58;;;;;;;;;;4116044;28;20093;-72
2021/10/08 04:37:29;;;;;;;295.75;38.17;;;;;;;;;;4114212;28;20446;-72
2021/10/08 04:39:30;;;;;;;209.82;33.60;;;;;;;;;;4114795;28;20094;-72
2021/10/08 04:41:31;;;;;;;297.00;40.03;;;;;;;;;;4114767;28;20042;-72
2021/10/08 04:43:33;;;;;;;218.70;31.00;;;;;;;;;;4114654;28;20510;-72
2021/10/08 04:45:34;;;;;;;313.63;40.45;;;;;;;;;;4113108;28;20145;-71
2021/10/08 04:47:36;;;;;;;261.92;34.33;;;;;;;;;;4107936;28;20070;-72
2021/10/08 04:49:37;;;;;;;292.25;39.33;;;;;;;;;;4125377;28;20050;-72
2021/10/08 04:51:38;;;;;;;252.13;36.20;;;;;;;;;;4097767;28;20514;-72
2021/10/08 04:53:40;;;;;;;198.27;32.40;;;;;;;;;;4114270;28;20409;-73
2021/10/08 04:55:41;;;;;;;157.30;27.40;;;;;;;;;;4109077;28;20115;-73
2021/10/08 04:57:42;;;;;;;386.17;43.72;;;;;;;;;;4125628;28;20470;-72
2021/10/08 04:59:43;;;;;;;220.82;35.65;;;;;;;;;;4114898;28;20045;-73
2021/10/08 05:01:44;;;;;;;205.88;31.35;;;;;;;;;;4119192;28;20444;-72
2021/10/08 05:03:46;;;;;;;327.73;40.72;;;;;;;;;;4120238;28;20098;-73
2021/10/08 05:05:50;;;;;;;181.73;27.90;;;;;;;;;;4112610;28;20504;-73
2021/10/08 05:07:51;;;;;;;456.73;50.67;;;;;;;;;;4112981;28;20047;-72
2021/10/08 05:09:52;;;;;;;99.72;21.77;;;;;;;;;;4111492;28;20552;-72
2021/10/08 05:11:53;;;;;;;131.90;21.38;;;;;;;;;;4114068;28;20574;-72
2021/10/08 05:13:55;;;;;;;162.93;24.83;;;;;;;;;;4106869;28;20047;-72
2021/10/08 05:15:56;;;;;;;189.35;26.05;;;;;;;;;;4111802;28;20550;-72
2021/10/08 05:17:58;;;;;;;181.05;26.23;;;;;;;;;;4101378;28;20462;-72
2021/10/08 05:19:59;;;;;;;108.97;22.00;;;;;;;;;;4122688;28;20089;-72
2021/10/08 05:22:00;;;;;;;135.32;23.00;;;;;;;;;;4111687;28;20394;-72
2021/10/08 05:24:01;;;;;;;142.90;22.85;;;;;;;;;;4114114;28;20031;-71
2021/10/08 05:26:03;;;;;;;134.50;22.23;;;;;;;;;;4114834;28;20042;-72
2021/10/08 05:28:04;;;;;;;93.78;18.10;;;;;;;;;;4114833;28;20134;-71
2021/10/08 05:30:06;;;;;;;83.38;18.98;;;;;;;;;;4125621;28;20186;-72
2021/10/08 05:32:07;;;;;;;70.88;17.10;;;;;;;;;;4123784;28;20046;-71
2021/10/08 05:34:10;;;;;;;54.15;15.10;;;;;;;;;;4113421;28;20031;-72
2021/10/08 05:36:11;;;;;;;70.00;15.65;;;;;;;;;;4115894;28;20443;-73
2021/10/08 05:38:13;;;;;;;68.00;13.63;;;;;;;;;;4112181;28;20183;-70
2021/10/08 05:40:14;;;;;;;53.63;14.20;;;;;;;;;;4109882;28;20050;-71
2021/10/08 05:42:15;;;;;;;52.08;13.77;;;;;;;;;;4114488;28;20072;-72
2021/10/08 05:44:16;;;;;;;59.40;13.65;;;;;;;;;;4115162;28;20034;-71
2021/10/08 05:46:17;;;;;;;38.55;12.35;;;;;;;;;;4115844;28;20502;-71
2021/10/08 05:48:18;;;;;;;62.05;13.95;;;;;;;;;;4111460;28;20376;-72
2021/10/08 05:50:20;;;;;;;56.40;14.57;;;;;;;;;;4129712;28;20039;-71
2021/10/08 05:52:21;;;;;;;104.50;16.83;;;;;;;;;;4117395;28;20058;-71
2021/10/08 05:54:22;;;;;;;88.07;15.80;;;;;;;;;;4113516;28;20085;-72
2021/10/08 05:56:23;;;;;;;115.70;17.83;;;;;;;;;;4127779;28;20104;-72
2021/10/08 05:58:24;;;;;;;118.97;19.42;;;;;;;;;;4113116;28;20094;-71
2021/10/08 06:00:25;;;;;;;210.40;27.15;;;;;;;;;;4113523;28;20038;-72
2021/10/08 06:02:27;;;;;;;157.98;21.60;;;;;;;;;;4126471;28;20160;-73
2021/10/08 06:04:28;;;;;;;94.95;17.02;;;;;;;;;;4112911;28;20039;-72
2021/10/08 06:06:29;;;;;;;112.32;18.73;;;;;;;;;;4113201;28;20699;-72
2021/10/08 06:08:30;;;;;;;64.45;15.98;;;;;;;;;;4114839;28;20038;-72
2021/10/08 06:10:31;;;;;;;68.75;16.63;;;;;;;;;;4112017;28;20058;-72
2021/10/08 06:12:33;;;;;;;45.13;14.20;;;;;;;;;;4110520;28;20570;-72
2021/10/08 06:14:34;;;;;;;45.10;15.80;;;;;;;;;;4106297;28;20051;-71
2021/10/08 06:16:35;;;;;;;53.42;16.13;;;;;;;;;;4113512;28;20031;-72
2021/10/08 06:18:36;;;;;;;34.80;14.93;;;;;;;;;;4110683;28;20537;-71
2021/10/08 06:20:37;;;;;;;38.22;15.55;;;;;;;;;;4114830;28;20030;-71
2021/10/08 06:22:40;;;;;;;39.15;15.75;;;;;;;;;;4107821;28;20043;-72
2021/10/08 06:24:41;;;;;;;40.92;14.60;;;;;;;;;;4112992;28;20034;-71
2021/10/08 06:26:42;;;;;;;32.92;12.95;;;;;;;;;;4113398;28;20049;-71
2021/10/08 06:28:43;;;;;;;50.97;14.65;;;;;;;;;;4111636;28;20055;-71
2021/10/08 06:30:44;;;;;;;38.70;13.23;;;;;;;;;;4112590;28;20567;-71
2021/10/08 06:32:45;;;;;;;36.92;14.77;;;;;;;;;;4113400;28;20058;-71
2021/10/08 06:34:46;;;;;;;33.80;13.63;;;;;;;;;;4106005;28;20142;-72
2021/10/08 06:36:47;;;;;;;30.65;14.32;;;;;;;;;;4119245;28;20040;-71
2021/10/08 06:38:49;;;;;;;38.38;15.35;;;;;;;;;;4097198;28;20423;-71
2021/10/08 06:40:50;;;;;;;36.13;15.05;;;;;;;;;;4105602;28;20034;-71
2021/10/08 06:42:51;;;;;;;40.75;14.68;;;;;;;;;;4111663;28;20061;-72
2021/10/08 06:44:53;;;;;;;43.67;15.48;;;;;;;;;;4125297;28;20458;-71
2021/10/08 06:46:54;;;;;;;35.38;15.15;;;;;;;;;;4106545;28;20047;-71
2021/10/08 06:48:55;;;;;;;40.25;17.20;;;;;;;;;;4129752;28;20529;-72
2021/10/08 06:50:57;;;;;;;36.10;15.27;;;;;;;;;;4112038;28;20423;-72
2021/10/08 06:52:59;;;;;;;38.38;16.02;;;;;;;;;;4124838;28;20050;-71
2021/10/08 06:55:00;;;;;;;45.58;17.55;;;;;;;;;;4113360;28;20478;-71
2021/10/08 06:57:01;;;;;;;42.15;16.73;;;;;;;;;;4112409;28;20042;-72
2021/10/08 06:59:02;;;;;;;46.40;17.15;;;;;;;;;;4112344;28;20737;-71
2021/10/08 07:01:03;;;;;;;40.38;17.95;;;;;;;;;;4114268;28;20382;-71
2021/10/08 07:03:04;;;;;;;45.28;20.60;;;;;;;;;;4113003;28;20517;-71
2021/10/08 07:05:06;;;;;;;46.45;20.77;;;;;;;;;;4123396;28;20501;-71
2021/10/08 07:07:07;;;;;;;61.47;21.25;;;;;;;;;;4112587;28;20425;-72
2021/10/08 07:09:08;;;;;;;50.50;21.08;;;;;;;;;;4111594;28;20043;-72
2021/10/08 07:11:09;;;;;;;62.55;23.08;;;;;;;;;;4118298;28;20117;-72
2021/10/08 07:13:10;;;;;;;56.97;23.23;;;;;;;;;;4111390;28;20148;-71
2021/10/08 07:15:17;;;;;;;60.42;24.80;;;;;;;;;;4127464;28;20512;-71
2021/10/08 07:17:18;;;;;;;68.50;24.65;;;;;;;;;;4112840;28;20042;-71
2021/10/08 07:19:19;;;;;;;77.38;25.20;;;;;;;;;;4105933;28;20502;-71
2021/10/08 07:21:21;;;;;;;67.43;25.80;;;;;;;;;;4110762;28;20113;-71
2021/10/08 07:23:22;;;;;;;71.13;27.40;;;;;;;;;;4127734;28;20108;-71
2021/10/08 07:25:28;;;;;;;88.10;30.85;;;;;;;;;;4122921;28;20489;-70
2021/10/08 07:27:29;;;;;;;70.85;29.38;;;;;;;;;;4109946;28;20043;-71
2021/10/08 07:29:30;;;;;;;80.03;30.80;;;;;;;;;;4096343;28;20070;-71
2021/10/08 07:31:31;;;;;;;90.13;29.40;;;;;;;;;;4112365;28;20058;-71
2021/10/08 07:33:34;;;;;;;81.43;30.13;;;;;;;;;;4124792;28;20043;-72
2021/10/08 07:35:35;;;;;;;81.68;30.88;;;;;;;;;;4115905;28;20053;-71
2021/10/08 07:37:37;;;;;;;85.50;29.65;;;;;;;;;;4128742;28;20038;-72
2021/10/08 07:39:38;;;;;;;88.40;30.55;;;;;;;;;;4126234;28;20039;-72
2021/10/08 07:41:39;;;;;;;84.07;28.10;;;;;;;;;;4109751;28;20054;-72
2021/10/08 07:43:40;;;;;;;75.00;29.90;;;;;;;;;;4110220;28;20051;-72
2021/10/08 07:45:42;;;;;;;87.85;32.38;;;;;;;;;;4093187;28;20039;-71
2021/10/08 07:47:43;;;;;;;92.43;34.67;;;;;;;;;;4125709;28;20167;-71
2021/10/08 07:49:45;;;;;;;84.75;31.23;;;;;;;;;;4109463;28;20078;-71
2021/10/08 07:51:46;;;;;;;77.03;30.48;;;;;;;;;;4108010;28;20035;-71
2021/10/08 07:53:49;;;;;;;85.80;31.85;;;;;;;;;;4112886;28;20398;-71
2021/10/08 07:55:50;;;;;;;83.63;33.70;;;;;;;;;;4111129;28;20096;-71
2021/10/08 07:57:51;;;;;;;78.53;31.40;;;;;;;;;;4110969;28;20483;-71
2021/10/08 07:59:52;;;;;;;79.55;32.20;;;;;;;;;;4108345;28;20108;-71
2021/10/08 08:01:53;;;;;;;88.50;31.95;;;;;;;;;;4123814;28;20397;-72
2021/10/08 08:03:55;;;;;;;99.97;31.85;;;;;;;;;;4109030;28;20064;-71
2021/10/08 08:05:56;;;;;;;83.85;34.30;;;;;;;;;;4107681;28;20405;-72
2021/10/08 08:07:57;;;;;;;96.22;34.75;;;;;;;;;;4108398;28;20092;-72
2021/10/08 08:09:58;;;;;;;97.88;37.67;;;;;;;;;;4107826;28;20035;-71
2021/10/08 08:11:59;;;;;;;96.88;37.88;;;;;;;;;;4105034;28;20081;-72
2021/10/08 08:14:00;;;;;;;104.57;38.30;;;;;;;;;;4112620;28;20039;-71
2021/10/08 08:16:01;;;;;;;105.55;41.13;;;;;;;;;;4111275;28;20561;-72
2021/10/08 08:18:03;;;;;;;99.25;38.33;;;;;;;;;;4111685;28;20521;-71
2021/10/08 08:20:05;;;;;;;98.70;38.80;;;;;;;;;;4126357;28;20045;-71
2021/10/08 08:22:07;;;;;;;105.90;42.10;;;;;;;;;;4112453;28;20081;-71
2021/10/08 08:24:08;;;;;;;106.45;42.40;;;;;;;;;;4118467;28;20440;-71
2021/10/08 08:26:09;;;;;;;111.15;42.97;;;;;;;;;;4122418;28;20137;-71
2021/10/08 08:28:11;;;;;;;110.40;42.78;;;;;;;;;;4114599;28;20057;-71
2021/10/08 08:30:12;;;;;;;109.68;44.33;;;;;;;;;;4113667;28;20086;-71
2021/10/08 08:32:15;;;;;;;108.47;43.80;;;;;;;;;;4129491;28;20047;-72
2021/10/08 08:34:16;;;;;;;110.13;44.00;;;;;;;;;;4126205;28;20561;-71
2021/10/08 08:36:18;;;;;;;104.78;41.95;;;;;;;;;;4115886;28;20153;-72
2021/10/08 08:38:19;;;;;;;118.28;47.83;;;;;;;;;;4114846;28;20062;-71
2021/10/08 08:40:21;;;;;;;118.95;47.45;;;;;;;;;;4115881;28;20489;-71
2021/10/08 08:42:22;;;;;;;121.88;45.50;;;;;;;;;;4113576;28;20073;-71
2021/10/08 08:44:23;;;;;;;107.03;44.25;;;;;;;;;;4114552;28;20042;-71
2021/10/08 08:46:25;;;;;;;110.28;46.95;;;;;;;;;;4114575;28;20374;-72
2021/10/08 08:48:26;;;;;;;107.90;46.50;;;;;;;;;;4114308;28;20195;-73
2021/10/08 08:50:28;;;;;;;111.65;48.35;;;;;;;;;;4125543;28;20061;-72
2021/10/08 08:52:29;;;;;;;116.70;49.70;;;;;;;;;;4114177;28;20034;-71
2021/10/08 08:54:30;;;;;;;117.03;49.40;;;;;;;;;;4124740;28;20046;-71
2021/10/08 08:56:31;;;;;;;107.63;48.75;;;;;;;;;;4114250;28;20047;-71
2021/10/08 08:58:32;;;;;;;100.10;45.08;;;;;;;;;;4114727;28;20516;-71
2021/10/08 09:00:33;;;;;;;111.32;47.78;;;;;;;;;;4114817;28;20461;-70
2021/10/08 09:02:36;;;;;;;108.97;49.92;;;;;;;;;;4114740;28;20065;-72
2021/10/08 09:04:37;;;;;;;118.88;53.88;;;;;;;;;;4114472;28;20134;-72
2021/10/08 09:06:40;;;;;;;112.05;48.67;;;;;;;;;;4113108;28;20122;-72
2021/10/08 09:08:44;;;;;;;126.18;53.72;;;;;;;;;;4106694;28;20486;-73
2021/10/08 09:10:47;;;;;;;123.57;51.60;;;;;;;;;;4112526;28;20061;-71
2021/10/08 09:12:50;;;;;;;110.95;50.50;;;;;;;;;;4128307;28;20056;-71
2021/10/08 09:14:58;;;;;;;109.32;49.35;;;;;;;;;;4111393;28;20057;-70
2021/10/08 09:17:06;;;;;;;111.00;51.15;;;;;;;;;;4127587;28;20593;-70
2021/10/08 09:19:07;;;;;;;99.78;53.47;;;;;;;;;;4103593;28;20039;-71
2021/10/08 09:21:11;;;;;;;100.38;50.70;;;;;;;;;;4109171;28;20889;-72
2021/10/08 09:23:12;;;;;;;;;;;;;;;;;;4128973;28;20462;-71
2021/10/08 09:25:29;;;;;;;101.35;47.97;;;;;;;;;;4114058;28;19925;-71
2021/10/08 09:27:36;;;;;;;97.78;51.08;;;;;;;;;;4115241;28;20134;-72
2021/10/08 09:29:37;;;;;;;110.00;54.70;;;;;;;;;;4109828;28;20121;-71
2021/10/08 09:31:39;;;;;;;99.88;54.97;;;;;;;;;;4112596;28;20085;-72
2021/10/08 09:33:40;;;;;;;110.38;59.40;;;;;;;;;;4112780;28;20066;-72
2021/10/08 09:35:42;;;;;;;104.00;58.97;;;;;;;;;;4112704;28;20043;-72
2021/10/08 09:37:45;;;;;;;102.07;58.70;;;;;;;;;;4113648;28;20034;-72
2021/10/08 09:39:51;;;;;;;100.05;57.03;;;;;;;;;;4114725;28;20046;-72
2021/10/08 09:41:59;;;;;;;85.43;52.55;;;;;;;;;;4113230;28;20101;-71
2021/10/08 09:44:05;;;;;;;75.88;48.60;;;;;;;;;;4113980;28;20035;-72
2021/10/08 09:46:19;;;;;;;71.43;47.22;;;;;;;;;;4120724;28;20038;-72
2021/10/08 09:48:26;;;;;;;60.60;42.40;;;;;;;;;;4112573;28;20144;-69
2021/10/08 09:50:27;;;;;;;60.78;40.72;;;;;;;;;;4114535;28;20062;-71
2021/10/08 09:52:29;;;;;;;51.95;38.92;;;;;;;;;;4114500;28;20031;-69
2021/10/08 09:54:52;;;;;;;49.10;34.35;;;;;;;;;;4128554;28;20045;-70
2021/10/08 09:56:59;;;;;;;44.72;33.83;;;;;;;;;;4112133;28;20489;-71
2021/10/08 09:59:03;;;;;;;35.85;30.27;;;;;;;;;;4115290;28;20046;-70
2021/10/08 10:01:06;;;;;;;34.65;27.95;;;;;;;;;;4129132;28;20532;-71
2021/10/08 10:03:10;;;;;;;35.67;27.25;;;;;;;;;;4108611;28;20038;-72
2021/10/08 10:05:11;;;;;;;36.00;25.52;;;;;;;;;;4114739;28;20062;-71
2021/10/08 10:07:18;;;;;;;41.00;26.48;;;;;;;;;;4127049;28;20058;-72
2021/10/08 10:09:21;;;;;;;31.00;24.38;;;;;;;;;;4118915;28;20038;-72
2021/10/08 10:11:24;;;;;;;28.63;23.20;;;;;;;;;;4097025;28;20058;-72
2021/10/08 10:13:26;;;;;;;30.35;22.42;;;;;;;;;;4112727;28;20085;-71
2021/10/08 10:15:28;;;;;;;27.95;22.35;;;;;;;;;;4114795;28;20061;-72
2021/10/08 10:17:30;;;;;;;27.58;21.85;;;;;;;;;;4112806;28;20055;-71
2021/10/08 10:19:31;;;;;;;28.63;22.90;;;;;;;;;;4113605;28;20059;-71
2021/10/08 10:21:36;;;;;;;27.98;22.10;;;;;;;;;;4112635;28;20030;-72
2021/10/08 10:23:38;;;;;;;24.70;19.85;;;;;;;;;;4112760;28;20039;-72
2021/10/08 10:25:39;;;;;;;25.30;18.85;;;;;;;;;;4107658;28;20077;-72
2021/10/08 10:27:42;;;;;;;21.25;17.67;;;;;;;;;;4122276;28;20038;-72
2021/10/08 10:29:45;;;;;;;23.38;17.70;;;;;;;;;;4127434;28;20149;-72
2021/10/08 10:31:48;;;;;;;20.40;16.10;;;;;;;;;;4107212;28;20158;-72
2021/10/08 10:33:49;;;;;;;18.55;15.27;;;;;;;;;;4121280;28;20054;-73
2021/10/08 10:35:52;;;;;;;20.13;16.33;;;;;;;;;;4125266;28;20109;-72
2021/10/08 10:37:53;;;;;;;;;;;;;;;;;;4107665;28;20046;-72
2021/10/08 10:40:14;;;;;;;18.70;15.05;;;;;;;;;;4109669;28;19950;-72
2021/10/08 10:42:16;;;;;;;21.02;16.13;;;;;;;;;;4095309;28;20036;-73
2021/10/08 10:49:27;;;;;;;17.83;15.63;;;;;;;;;;4117300;28;20109;-73
2021/10/08 10:51:28;;;;;;;18.05;14.45;;;;;;;;;;4105254;28;20071;-72
2021/10/08 10:53:58;;;;;;;18.40;13.77;;;;;;;;;;4109924;28;20039;-72
2021/10/08 10:55:59;;;;;;;17.48;14.98;;;;;;;;;;4099081;28;20561;-71
2021/10/08 10:58:04;;;;;;;21.17;15.52;;;;;;;;;;4124371;28;20031;-72
2021/10/08 11:00:24;;;;;;;19.80;15.75;;;;;;;;;;4103378;28;20158;-72
2021/10/08 11:02:26;;;;;;;17.95;14.82;;;;;;;;;;4098100;28;20479;-72
2021/10/08 11:04:27;;;;;;;20.00;15.25;;;;;;;;;;4111654;28;20562;-72
2021/10/08 11:06:28;;;;;;;18.45;13.95;;;;;;;;;;4113212;28;20038;-73
2021/10/08 11:08:29;;;;;;;16.00;13.45;;;;;;;;;;4104872;28;20382;-72
2021/10/08 11:10:30;;;;;;;19.50;14.73;;;;;;;;;;4114805;28;20481;-72
2021/10/08 11:12:41;;;;;;;19.73;14.32;;;;;;;;;;4096045;28;20046;-72
2021/10/08 11:14:42;;;;;;;18.05;12.90;;;;;;;;;;4124024;28;20108;-72
2021/10/08 11:16:43;;;;;;;16.48;14.15;;;;;;;;;;4112755;28;20398;-73
2021/10/08 11:18:47;;;;;;;16.50;14.05;;;;;;;;;;4120376;28;20510;-72
2021/10/08 11:20:49;;;;;;;15.40;12.95;;;;;;;;;;4122857;28;20400;-72
2021/10/08 11:22:50;;;;;;;13.23;11.48;;;;;;;;;;4102885;28;20058;-72
2021/10/08 11:25:05;;;;;;;13.45;12.00;;;;;;;;;;4120427;28;20050;-72
2021/10/08 11:27:06;;;;;;;12.98;11.68;;;;;;;;;;4088205;28;20424;-72
2021/10/08 11:29:07;;;;;;;14.02;12.45;;;;;;;;;;4109605;28;20027;-72
2021/10/08 11:31:12;;;;;;;13.88;10.75;;;;;;;;;;4095917;28;20045;-71
2021/10/08 11:33:13;;;;;;;11.20;9.63;;;;;;;;;;4113344;28;20035;-72
2021/10/08 11:35:19;;;;;;;10.30;8.73;;;;;;;;;;4127412;28;20449;-73
2021/10/08 11:37:21;;;;;;;11.57;8.90;;;;;;;;;;4109564;28;20130;-72
2021/10/08 11:39:22;;;;;;;9.65;8.52;;;;;;;;;;4126073;28;20078;-72
2021/10/08 11:41:25;;;;;;;10.93;8.80;;;;;;;;;;4111500;28;20041;-72
2021/10/08 11:43:35;;;;;;;;;;;;;;;;;;4127277;28;20089;-72
2021/10/08 11:47:53;;;;;;;10.30;8.23;;;;;;;;;;4122878;28;20073;-72
2021/10/08 11:52:16;;;;;;;9.68;7.45;;;;;;;;;;4111962;28;20035;-71
2021/10/08 11:54:20;;;;;;;7.85;7.05;;;;;;;;;;4111971;28;20038;-71
2021/10/08 11:56:33;;;;;;;7.72;7.03;;;;;;;;;;4099501;28;20058;-71
2021/10/08 11:58:34;;;;;;;10.00;7.25;;;;;;;;;;4114523;28;20038;-71